createdAt,value
2018-07-13T00:00:37.342Z,68.25
2018-07-13T00:03:03.486Z,68.12
2018-07-13T00:05:29.516Z,69.22
2018-07-13T00:07:55.531Z,68.82
2018-07-13T00:10:21.556Z,69.48
2018-07-13T00:12:47.607Z,68.45
2018-07-13T00:15:13.628Z,67.90
2018-07-13T00:17:39.637Z,67.52
2018-07-13T00:20:05.662Z,67.94
2018-07-13T00:22:31.692Z,68.24
2018-07-13T00:24:57.669Z,67.93
2018-07-13T00:27:23.669Z,68.26
2018-07-13T00:29:49.680Z,67.33
2018-07-13T00:32:15.787Z,68.01
2018-07-13T00:34:41.799Z,68.30
2018-07-13T00:37:07.815Z,68.25
2018-07-13T00:39:33.851Z,67.38
2018-07-13T00:41:59.859Z,68.00
2018-07-13T00:44:25.865Z,67.79
2018-07-13T00:46:51.914Z,67.49
2018-07-13T00:49:17.937Z,67.99
2018-07-13T00:51:43.981Z,67.73
2018-07-13T00:54:09.983Z,67.34
2018-07-13T00:56:35.969Z,67.36
2018-07-13T00:59:01.964Z,67.94
2018-07-13T01:01:27.997Z,67.56
2018-07-13T01:03:54.014Z,68.19
2018-07-13T01:06:20.040Z,67.87
2018-07-13T01:08:46.071Z,67.32
2018-07-13T01:11:12.071Z,67.34
2018-07-13T01:13:38.079Z,67.74
2018-07-13T01:16:04.076Z,67.79
2018-07-13T01:18:30.122Z,67.54
2018-07-13T01:20:56.172Z,67.45
2018-07-13T01:23:22.169Z,67.34
2018-07-13T01:25:48.222Z,67.60
2018-07-13T01:28:14.245Z,67.62
2018-07-13T01:30:40.249Z,66.92
2018-07-13T01:33:06.230Z,67.71
2018-07-13T01:35:32.256Z,66.89
2018-07-13T01:37:58.272Z,66.69
2018-07-13T01:40:24.316Z,67.41
2018-07-13T01:42:50.304Z,67.34
2018-07-13T01:45:16.312Z,67.22
2018-07-13T01:47:42.316Z,66.73
2018-07-13T01:50:08.353Z,67.35
2018-07-13T01:52:34.367Z,66.64
2018-07-13T01:55:00.385Z,66.74
2018-07-13T01:57:26.418Z,66.87
2018-07-13T01:59:52.448Z,67.63
2018-07-13T02:02:18.454Z,67.09
2018-07-13T02:04:44.467Z,66.90
2018-07-13T02:07:10.477Z,67.45
2018-07-13T02:09:36.502Z,66.77
2018-07-13T02:12:02.507Z,66.79
2018-07-13T02:14:28.554Z,67.20
2018-07-13T02:16:54.604Z,66.92
2018-07-13T02:19:20.601Z,67.38
2018-07-13T02:21:46.587Z,67.55
2018-07-13T02:24:12.642Z,66.89
2018-07-13T02:26:38.680Z,67.49
2018-07-13T02:29:04.714Z,66.89
2018-07-13T02:31:30.733Z,66.96
2018-07-13T02:33:56.831Z,67.30
2018-07-13T02:36:22.848Z,67.52
2018-07-13T02:38:48.849Z,67.36
2018-07-13T02:41:14.878Z,67.48
2018-07-13T02:43:40.896Z,67.12
2018-07-13T02:46:06.922Z,67.35
2018-07-13T02:48:32.944Z,67.19
2018-07-13T02:50:58.960Z,67.54
2018-07-13T02:53:24.998Z,66.71
2018-07-13T02:55:51.045Z,66.60
2018-07-13T02:58:17.117Z,67.32
2018-07-13T03:00:43.154Z,67.51
2018-07-13T03:03:09.184Z,67.43
2018-07-13T03:05:35.218Z,66.87
2018-07-13T03:08:01.246Z,67.32
2018-07-13T03:10:27.349Z,66.79
2018-07-13T03:12:53.353Z,67.66
2018-07-13T03:15:19.376Z,67.71
2018-07-13T03:17:45.400Z,68.14
2018-07-13T03:20:11.433Z,67.60
2018-07-13T03:22:37.449Z,67.34
2018-07-13T03:25:03.497Z,66.82
2018-07-13T03:27:29.532Z,67.26
2018-07-13T03:29:55.538Z,67.70
2018-07-13T03:32:21.537Z,66.79
2018-07-13T03:34:47.569Z,67.21
2018-07-13T03:37:13.585Z,66.65
2018-07-13T03:39:39.639Z,66.11
2018-07-13T03:42:05.659Z,66.78
2018-07-13T03:44:31.688Z,67.06
2018-07-13T03:46:57.696Z,66.36
2018-07-13T03:49:23.705Z,66.69
2018-07-13T03:51:49.713Z,66.51
2018-07-13T03:54:15.822Z,67.46
2018-07-13T03:56:41.839Z,67.42
2018-07-13T03:59:07.871Z,67.45
2018-07-13T04:01:33.883Z,66.85
2018-07-13T04:03:59.900Z,66.46
2018-07-13T04:06:25.926Z,66.18
2018-07-13T04:08:51.940Z,65.26
2018-07-13T04:11:17.974Z,65.70
2018-07-13T04:13:43.979Z,66.67
2018-07-13T04:16:10.059Z,66.10
2018-07-13T04:18:36.087Z,65.34
2018-07-13T04:21:02.109Z,66.17
2018-07-13T04:23:28.116Z,65.84
2018-07-13T04:25:54.128Z,66.73
2018-07-13T04:28:20.160Z,66.83
2018-07-13T04:30:46.204Z,67.04
2018-07-13T04:33:12.236Z,66.71
2018-07-13T04:35:38.261Z,65.85
2018-07-13T04:38:04.277Z,65.41
2018-07-13T04:40:30.460Z,66.67
2018-07-13T04:42:56.474Z,66.69
2018-07-13T04:45:22.508Z,66.01
2018-07-13T04:47:48.544Z,65.83
2018-07-13T04:50:14.630Z,66.03
2018-07-13T04:52:40.633Z,66.28
2018-07-13T04:55:06.658Z,66.88
2018-07-13T04:57:32.685Z,66.74
2018-07-13T04:59:58.701Z,66.28
2018-07-13T05:02:24.701Z,66.60
2018-07-13T05:04:50.726Z,66.67
2018-07-13T05:07:16.765Z,66.51
2018-07-13T05:09:42.788Z,66.24
2018-07-13T05:12:08.824Z,67.18
2018-07-13T05:14:34.850Z,66.72
2018-07-13T05:17:00.890Z,65.96
2018-07-13T05:19:26.902Z,66.50
2018-07-13T05:21:52.948Z,66.67
2018-07-13T05:24:18.969Z,66.50
2018-07-13T05:26:44.973Z,65.80
2018-07-13T05:29:11.013Z,65.84
2018-07-13T05:31:37.039Z,65.76
2018-07-13T05:34:03.110Z,65.95
2018-07-13T05:36:29.184Z,65.11
2018-07-13T05:38:55.183Z,66.34
2018-07-13T05:41:21.218Z,66.87
2018-07-13T05:43:47.226Z,65.32
2018-07-13T05:46:13.276Z,64.84
2018-07-13T05:48:39.295Z,64.92
2018-07-13T05:51:05.338Z,64.65
2018-07-13T05:53:31.349Z,64.60
2018-07-13T05:55:57.353Z,63.88
2018-07-13T05:58:23.396Z,64.01
2018-07-13T06:00:49.404Z,65.11
2018-07-13T06:03:15.417Z,64.32
2018-07-13T06:05:41.466Z,63.87
2018-07-13T06:08:07.490Z,61.74
2018-07-13T06:10:33.492Z,61.47
2018-07-13T06:12:59.541Z,58.15
2018-07-13T06:15:25.537Z,60.81
2018-07-13T06:17:51.563Z,59.69
2018-07-13T06:20:17.607Z,61.54
2018-07-13T06:22:43.631Z,61.41
2018-07-13T06:25:09.663Z,61.86
2018-07-13T06:27:35.692Z,62.13
2018-07-13T06:30:01.680Z,62.94
2018-07-13T06:32:27.755Z,62.27
2018-07-13T06:34:53.881Z,61.33
2018-07-13T06:37:20.069Z,61.27
2018-07-13T06:39:46.165Z,58.52
2018-07-13T06:42:12.290Z,58.78
2018-07-13T06:44:38.343Z,58.09
2018-07-13T06:47:04.371Z,58.30
2018-07-13T06:49:30.513Z,57.39
2018-07-13T06:51:56.561Z,57.72
2018-07-13T06:54:22.577Z,57.57
2018-07-13T06:56:48.640Z,58.98
2018-07-13T06:59:14.616Z,58.56
2018-07-13T07:01:40.641Z,59.20
2018-07-13T07:04:06.657Z,58.64
2018-07-13T07:06:32.680Z,58.27
2018-07-13T07:08:58.747Z,56.54
2018-07-13T07:11:24.834Z,53.93
2018-07-13T07:13:50.832Z,52.13
2018-07-13T07:16:16.836Z,54.10
2018-07-13T07:18:42.861Z,55.06
2018-07-13T07:21:08.853Z,53.91
2018-07-13T07:23:34.891Z,52.90
2018-07-13T07:26:00.897Z,51.49
2018-07-13T07:28:26.922Z,50.25
2018-07-13T07:30:52.943Z,50.54
2018-07-13T07:33:18.999Z,49.39
2018-07-13T07:35:45.077Z,49.97
2018-07-13T07:38:11.124Z,50.31
2018-07-13T07:40:37.136Z,51.38
2018-07-13T07:43:03.158Z,49.12
2018-07-13T07:45:29.198Z,50.54
2018-07-13T07:47:55.261Z,48.72
2018-07-13T07:50:21.277Z,47.51
2018-07-13T07:52:47.298Z,48.34
2018-07-13T07:55:13.307Z,48.45
2018-07-13T07:57:39.483Z,49.53
2018-07-13T08:00:05.356Z,48.21
2018-07-13T08:02:31.516Z,48.39
2018-07-13T08:04:57.550Z,49.83
2018-07-13T08:07:23.555Z,49.26
2018-07-13T08:09:49.577Z,49.61
2018-07-13T08:12:15.597Z,50.29
2018-07-13T08:14:41.690Z,50.83
2018-07-13T08:17:07.674Z,50.66
2018-07-13T08:19:33.696Z,50.10
2018-07-13T08:21:59.750Z,50.21
2018-07-13T08:24:26.805Z,50.34
2018-07-13T08:26:52.834Z,51.38
2018-07-13T08:29:18.876Z,51.72
2018-07-13T08:31:44.874Z,51.40
2018-07-13T08:34:10.888Z,53.54
2018-07-13T08:36:36.841Z,53.07
2018-07-13T08:39:02.823Z,52.41
2018-07-13T08:41:28.784Z,53.09
2018-07-13T08:43:54.766Z,52.82
2018-07-13T08:46:20.714Z,53.63
2018-07-13T08:48:47.641Z,53.91
2018-07-13T08:51:13.620Z,54.02
2018-07-13T08:53:39.615Z,54.11
2018-07-13T08:56:05.560Z,55.14
2018-07-13T08:58:31.534Z,53.55
2018-07-13T09:00:57.508Z,53.90
2018-07-13T09:03:23.572Z,53.98
2018-07-13T09:05:49.590Z,53.23
2018-07-13T09:08:15.519Z,54.58
2018-07-13T09:10:41.507Z,54.52
2018-07-13T09:13:07.546Z,54.83
2018-07-13T09:15:33.612Z,54.75
2018-07-13T09:18:00.545Z,57.26
2018-07-13T09:20:26.500Z,56.67
2018-07-13T09:22:52.427Z,55.46
2018-07-13T09:25:18.391Z,55.54
2018-07-13T09:27:44.366Z,56.50
2018-07-13T09:30:10.316Z,56.26
2018-07-13T09:32:36.337Z,57.00
2018-07-13T09:35:02.298Z,57.49
2018-07-13T09:37:28.300Z,58.73
2018-07-13T09:39:54.286Z,58.91
2018-07-13T09:42:20.242Z,57.60
2018-07-13T09:44:46.237Z,58.04
2018-07-13T09:47:12.198Z,59.12
2018-07-13T09:49:38.197Z,59.43
2018-07-13T09:52:04.153Z,59.01
2018-07-13T09:54:30.139Z,57.09
2018-07-13T09:56:56.108Z,57.24
2018-07-13T09:59:22.092Z,56.87
2018-07-13T10:01:48.081Z,57.81
2018-07-13T10:04:14.062Z,57.32
2018-07-13T10:06:40.063Z,57.64
2018-07-13T10:09:06.025Z,56.89
2018-07-13T10:11:32.061Z,56.40
2018-07-13T10:13:58.038Z,56.46
2018-07-13T10:16:24.016Z,56.62
2018-07-13T10:18:50.361Z,56.93
2018-07-13T10:21:16.355Z,56.63
2018-07-13T10:23:42.318Z,57.63
2018-07-13T10:26:08.297Z,55.85
2018-07-13T10:28:34.300Z,54.79
2018-07-13T10:31:00.316Z,56.29
2018-07-13T10:33:26.293Z,55.09
2018-07-13T10:35:52.271Z,56.47
2018-07-13T10:38:18.256Z,54.48
2018-07-13T10:40:44.241Z,54.04
2018-07-13T10:43:10.274Z,53.07
2018-07-13T10:45:36.267Z,51.55
2018-07-13T10:48:02.226Z,53.24
2018-07-13T10:50:28.206Z,53.74
2018-07-13T10:52:54.204Z,53.67
2018-07-13T10:55:20.161Z,54.08
2018-07-13T10:57:46.128Z,53.58
2018-07-13T11:00:12.095Z,54.47
2018-07-13T11:02:38.107Z,53.70
2018-07-13T11:05:04.060Z,52.64
2018-07-13T11:07:30.005Z,52.07
2018-07-13T11:09:55.952Z,53.97
2018-07-13T11:12:21.901Z,52.94
2018-07-13T11:14:47.841Z,53.44
2018-07-13T11:17:13.798Z,52.51
2018-07-13T11:19:39.762Z,52.41
2018-07-13T11:22:05.712Z,52.94
2018-07-13T11:24:31.685Z,51.89
2018-07-13T11:26:57.681Z,52.22
2018-07-13T11:29:23.651Z,53.05
2018-07-13T11:31:49.623Z,51.67
2018-07-13T11:34:15.592Z,52.09
2018-07-13T11:36:41.579Z,51.33
2018-07-13T11:39:08.194Z,52.78
2018-07-13T11:41:34.162Z,52.68
2018-07-13T11:44:00.255Z,52.18
2018-07-13T11:46:26.313Z,52.08
2018-07-13T11:48:52.388Z,50.86
2018-07-13T11:51:18.362Z,51.99
2018-07-13T11:53:44.313Z,51.22
2018-07-13T11:56:10.314Z,50.48
2018-07-13T11:58:36.297Z,50.05
2018-07-13T12:01:02.281Z,49.57
2018-07-13T12:03:28.288Z,49.35
2018-07-13T12:05:54.284Z,49.48
2018-07-13T12:08:20.272Z,49.00
2018-07-13T12:10:46.260Z,47.80
2018-07-13T12:13:12.279Z,47.85
2018-07-13T12:15:38.239Z,49.55
2018-07-13T12:18:04.203Z,48.47
2018-07-13T12:20:30.152Z,51.22
2018-07-13T12:22:56.124Z,52.12
2018-07-13T12:25:22.097Z,52.58
2018-07-13T12:27:48.033Z,52.54
2018-07-13T12:30:14.012Z,52.60
2018-07-13T12:32:39.989Z,51.58
2018-07-13T12:35:05.966Z,52.55
2018-07-13T12:37:31.903Z,51.88
2018-07-13T12:39:57.943Z,51.96
2018-07-13T12:42:23.804Z,52.70
2018-07-13T12:44:49.753Z,51.74
2018-07-13T12:47:15.717Z,51.13
2018-07-13T12:49:41.692Z,52.33
2018-07-13T12:52:07.668Z,52.48
2018-07-13T12:54:33.668Z,51.75
2018-07-13T12:56:59.636Z,52.53
2018-07-13T12:59:25.658Z,51.54
2018-07-13T13:01:51.565Z,50.94
2018-07-13T13:04:17.537Z,52.21
2018-07-13T13:06:43.495Z,50.46
2018-07-13T13:09:09.457Z,50.51
2018-07-13T13:11:35.397Z,50.34
2018-07-13T13:14:01.457Z,51.21
2018-07-13T13:16:27.412Z,50.66
2018-07-13T13:18:53.429Z,50.58
2018-07-13T13:21:19.381Z,50.77
2018-07-13T13:23:45.365Z,49.36
2018-07-13T13:26:11.342Z,58.06
2018-07-13T13:28:37.304Z,57.91
2018-07-13T13:31:03.237Z,55.93
2018-07-13T13:33:29.243Z,55.97
2018-07-13T13:35:55.212Z,58.82
2018-07-13T13:38:21.154Z,53.05
2018-07-13T13:40:47.091Z,57.48
2018-07-13T13:43:13.052Z,56.53
2018-07-13T13:45:38.975Z,57.13
2018-07-13T13:48:04.936Z,56.97
2018-07-13T13:50:30.885Z,57.22
2018-07-13T13:52:56.849Z,57.59
2018-07-13T13:55:22.794Z,57.49
2018-07-13T13:57:48.732Z,58.56
2018-07-13T14:00:14.690Z,57.52
2018-07-13T14:02:40.675Z,50.36
2018-07-13T14:05:06.653Z,54.19
2018-07-13T14:07:32.607Z,52.41
2018-07-13T14:09:58.591Z,52.52
2018-07-13T14:12:24.589Z,52.93
2018-07-13T14:14:50.547Z,52.02
2018-07-13T14:17:16.571Z,53.22
2018-07-13T14:19:42.537Z,51.94
2018-07-13T14:22:08.473Z,52.88
2018-07-13T14:24:34.547Z,53.82
2018-07-13T14:27:00.514Z,51.02
2018-07-13T14:29:26.460Z,53.09
2018-07-13T14:31:52.505Z,48.15
2018-07-13T14:34:18.466Z,48.36
2018-07-13T14:36:44.431Z,48.74
2018-07-13T14:39:10.393Z,51.84
2018-07-13T14:41:36.369Z,46.24
2018-07-13T14:44:02.319Z,48.00
2018-07-13T14:46:28.278Z,46.36
2018-07-13T14:48:54.217Z,47.15
2018-07-13T14:51:20.295Z,48.33
2018-07-13T14:53:46.247Z,49.29
2018-07-13T14:56:12.234Z,48.59
2018-07-13T14:58:38.191Z,48.52
2018-07-13T15:01:04.147Z,48.44
2018-07-13T15:03:30.107Z,48.83
2018-07-13T15:05:56.162Z,49.42
2018-07-13T15:08:22.140Z,48.61
2018-07-13T15:10:48.108Z,48.68
2018-07-13T15:13:14.071Z,48.26
2018-07-13T15:15:40.026Z,48.44
2018-07-13T15:18:06.001Z,50.79
2018-07-13T15:20:31.973Z,50.29
2018-07-13T15:22:57.917Z,51.09
2018-07-13T15:25:23.874Z,49.86
2018-07-13T15:27:49.928Z,50.01
2018-07-13T15:30:15.951Z,48.96
2018-07-13T15:32:41.902Z,48.95
2018-07-13T15:35:07.849Z,49.54
2018-07-13T15:37:33.832Z,50.20
2018-07-13T15:39:59.764Z,50.08
2018-07-13T15:42:25.782Z,49.51
2018-07-13T15:44:51.759Z,49.81
2018-07-13T15:47:17.833Z,49.36
2018-07-13T15:49:43.786Z,49.38
2018-07-13T15:52:09.749Z,49.28
2018-07-13T15:54:35.768Z,48.50
2018-07-13T15:57:01.711Z,47.41
2018-07-13T15:59:27.656Z,49.30
2018-07-13T16:01:53.599Z,48.30
2018-07-13T16:04:19.676Z,48.09
2018-07-13T16:06:45.699Z,47.02
2018-07-13T16:09:11.738Z,44.85
2018-07-13T16:11:37.701Z,46.42
2018-07-13T16:14:03.694Z,49.32
2018-07-13T16:16:29.779Z,47.04
2018-07-13T16:18:55.714Z,48.99
2018-07-13T16:21:21.708Z,48.22
2018-07-13T16:23:47.658Z,49.57
2018-07-13T16:26:13.629Z,48.73
2018-07-13T16:28:39.684Z,48.05
2018-07-13T16:31:05.611Z,48.93
2018-07-13T16:33:31.550Z,48.76
2018-07-13T16:35:57.502Z,47.90
2018-07-13T16:38:23.446Z,48.79
2018-07-13T16:40:49.437Z,48.94
2018-07-13T16:43:15.372Z,48.32
2018-07-13T16:45:41.331Z,46.85
2018-07-13T16:48:07.311Z,48.15
2018-07-13T16:50:33.311Z,48.45
2018-07-13T16:52:59.292Z,48.92
2018-07-13T16:55:25.239Z,47.20
2018-07-13T16:57:51.198Z,47.04
2018-07-13T17:00:17.179Z,47.31
2018-07-13T17:02:43.134Z,46.42
2018-07-13T17:05:09.106Z,45.17
2018-07-13T17:07:35.085Z,47.66
2018-07-13T17:10:01.076Z,46.63
2018-07-13T17:12:27.018Z,47.14
2018-07-13T17:14:53.059Z,46.05
2018-07-13T17:17:19.001Z,46.08
2018-07-13T17:19:44.944Z,45.75
2018-07-13T17:22:10.885Z,48.08
2018-07-13T17:24:36.828Z,47.68
2018-07-13T17:27:02.783Z,48.18
2018-07-13T17:29:28.757Z,48.50
2018-07-13T17:31:54.725Z,47.67
2018-07-13T17:34:20.672Z,47.47
2018-07-13T17:36:46.619Z,47.22
2018-07-13T17:39:12.576Z,48.04
2018-07-13T17:41:38.549Z,46.50
2018-07-13T17:44:04.531Z,47.88
2018-07-13T17:46:30.525Z,44.93
2018-07-13T17:48:56.529Z,47.37
2018-07-13T17:51:22.473Z,46.68
2018-07-13T17:53:48.417Z,47.46
2018-07-13T17:56:14.371Z,46.42
2018-07-13T17:58:40.320Z,46.63
2018-07-13T18:01:06.319Z,46.93
2018-07-13T18:03:32.267Z,46.75
2018-07-13T18:05:58.265Z,47.11
2018-07-13T18:08:24.214Z,44.51
2018-07-13T18:10:50.176Z,46.02
2018-07-13T18:13:16.185Z,46.48
2018-07-13T18:15:42.132Z,47.14
2018-07-13T18:18:08.091Z,44.64
2018-07-13T18:20:34.104Z,46.08
2018-07-13T18:23:00.129Z,46.64
2018-07-13T18:25:26.045Z,45.81
2018-07-13T18:27:51.996Z,46.60
2018-07-13T18:30:17.950Z,45.85
2018-07-13T18:32:44.066Z,45.71
2018-07-13T18:35:10.052Z,46.13
2018-07-13T18:37:36.020Z,46.55
2018-07-13T18:40:02.010Z,46.38
2018-07-13T18:42:27.954Z,45.67
2018-07-13T18:44:53.919Z,45.92
2018-07-13T18:47:19.869Z,46.35
2018-07-13T18:49:45.860Z,46.25
2018-07-13T18:52:11.853Z,46.45
2018-07-13T18:54:37.798Z,46.71
2018-07-13T18:57:03.748Z,46.42
2018-07-13T18:59:29.731Z,46.01
2018-07-13T19:01:55.707Z,46.87
2018-07-13T19:04:21.709Z,46.58
2018-07-13T19:06:47.696Z,47.38
2018-07-13T19:09:13.663Z,47.18
2018-07-13T19:11:39.598Z,46.78
2018-07-13T19:14:05.599Z,47.25
2018-07-13T19:16:31.610Z,48.18
2018-07-13T19:18:57.593Z,48.95
2018-07-13T19:21:23.653Z,47.69
2018-07-13T19:23:49.667Z,48.65
2018-07-13T19:26:15.629Z,48.75
2018-07-13T19:28:41.607Z,49.11
2018-07-13T19:31:07.700Z,46.98
2018-07-13T19:33:34.357Z,46.53
2018-07-13T19:36:00.272Z,47.07
2018-07-13T19:38:26.270Z,45.58
2018-07-13T19:40:52.234Z,46.79
2018-07-13T19:43:18.213Z,49.03
2018-07-13T19:45:44.156Z,45.97
2018-07-13T19:48:10.242Z,46.71
2018-07-13T19:50:36.251Z,44.44
2018-07-13T19:53:02.249Z,45.78
2018-07-13T19:55:28.225Z,45.47
2018-07-13T19:57:54.216Z,46.56
2018-07-13T20:00:20.220Z,45.58
2018-07-13T20:02:46.244Z,47.66
2018-07-13T20:05:12.238Z,46.24
2018-07-13T20:07:38.213Z,46.85
2018-07-13T20:10:04.177Z,47.30
2018-07-13T20:12:30.215Z,46.83
2018-07-13T20:14:56.192Z,46.67
2018-07-13T20:17:22.472Z,47.52
2018-07-13T20:19:48.515Z,48.55
2018-07-13T20:22:14.551Z,48.51
2018-07-13T20:24:40.516Z,49.19
2018-07-13T20:27:06.531Z,48.10
2018-07-13T20:29:32.522Z,49.04
2018-07-13T20:31:58.527Z,49.04
2018-07-13T20:34:24.497Z,49.30
2018-07-13T20:36:50.518Z,48.97
2018-07-13T20:39:16.530Z,49.66
2018-07-13T20:41:42.534Z,49.08
2018-07-13T20:44:08.527Z,49.35
2018-07-13T20:46:34.499Z,48.97
2018-07-13T20:49:00.480Z,49.06
2018-07-13T20:51:26.433Z,48.49
2018-07-13T20:53:52.436Z,48.58
2018-07-13T20:56:18.569Z,46.72
2018-07-13T20:58:44.631Z,47.44
2018-07-13T21:01:10.649Z,46.93
2018-07-13T21:03:36.651Z,46.39
2018-07-13T21:06:02.748Z,46.19
2018-07-13T21:08:32.625Z,45.97
2018-07-13T21:10:58.604Z,47.46
2018-07-13T21:13:24.602Z,46.64
2018-07-13T21:15:50.598Z,47.31
2018-07-13T21:18:16.587Z,47.55
2018-07-13T21:20:42.602Z,47.74
2018-07-13T21:23:08.602Z,48.20
2018-07-13T21:25:34.577Z,48.45
2018-07-13T21:28:00.576Z,48.13
2018-07-13T21:30:26.575Z,47.45
2018-07-13T21:32:52.559Z,49.20
2018-07-13T21:35:18.557Z,48.99
2018-07-13T21:37:44.559Z,49.58
2018-07-13T21:40:10.528Z,49.11
2018-07-13T21:42:36.528Z,49.99
2018-07-13T21:45:02.534Z,50.61
2018-07-13T21:47:28.537Z,51.17
2018-07-13T21:49:54.501Z,50.70
2018-07-13T21:52:20.497Z,50.25
2018-07-13T21:54:46.450Z,51.56
2018-07-13T21:57:12.489Z,52.37
2018-07-13T21:59:38.479Z,52.98
2018-07-13T22:02:04.449Z,52.82
2018-07-13T22:04:30.437Z,52.44
2018-07-13T22:06:56.383Z,52.50
2018-07-13T22:09:22.349Z,52.34
2018-07-13T22:11:48.890Z,52.59
2018-07-13T22:14:14.862Z,53.65
2018-07-13T22:16:40.877Z,53.21
2018-07-13T22:19:06.981Z,53.81
2018-07-13T22:21:33.033Z,53.93
2018-07-13T22:23:59.032Z,54.37
2018-07-13T22:26:25.122Z,53.81
2018-07-13T22:28:51.045Z,53.82
2018-07-13T22:31:17.088Z,54.21
2018-07-13T22:33:43.115Z,55.12
2018-07-13T22:36:09.144Z,54.23
2018-07-13T22:38:35.175Z,53.24
2018-07-13T22:41:01.136Z,54.25
2018-07-13T22:43:27.148Z,53.30
2018-07-13T22:45:53.235Z,53.57
2018-07-13T22:48:19.225Z,53.62
2018-07-13T22:50:45.281Z,54.61
2018-07-13T22:53:11.245Z,55.54
2018-07-13T22:55:37.489Z,54.70
2018-07-13T22:58:03.476Z,54.81
2018-07-13T23:00:31.550Z,56.13
2018-07-13T23:02:57.562Z,55.66
2018-07-13T23:05:23.523Z,56.67
2018-07-13T23:07:49.510Z,56.81
2018-07-13T23:10:15.494Z,57.00
2018-07-13T23:12:41.451Z,56.88
2018-07-13T23:15:07.466Z,57.42
2018-07-13T23:17:33.453Z,56.73
2018-07-13T23:19:59.472Z,56.55
2018-07-13T23:22:25.492Z,56.67
2018-07-13T23:24:51.459Z,57.11
2018-07-13T23:27:17.545Z,57.80
2018-07-13T23:29:43.510Z,58.59
2018-07-13T23:32:09.534Z,58.98
2018-07-13T23:34:35.578Z,58.97
2018-07-13T23:37:01.568Z,59.57
2018-07-13T23:39:27.633Z,58.10
2018-07-13T23:41:53.605Z,59.20
2018-07-13T23:44:19.590Z,58.99
2018-07-13T23:46:45.748Z,60.12
2018-07-13T23:49:11.743Z,59.75
2018-07-13T23:51:37.880Z,58.95
2018-07-13T23:54:04.084Z,58.55
2018-07-13T23:56:30.107Z,58.81
2018-07-13T23:58:56.245Z,58.86
